Time,TemperatureF,DewpointF,PressureIn,WindDirection,WindDirectionDegrees,WindSpeedMPH,WindSpeedGustMPH,Humidity,HourlyPrecipIn,Conditions,Clouds,dailyrainin,SoftwareType,DateUTC
2013-01-27 00:00:00,53.2,51.8,30.15,SSW,192,0.0,0.0,95,0.00,,---,0.00,VWS V14.01,2013-01-27 06:00:00,
2013-01-27 00:05:00,53.2,51.8,30.15,SSW,192,0.0,0.0,95,0.00,,---,0.00,VWS V14.01,2013-01-27 06:05:00,
2013-01-27 00:10:00,52.9,51.5,30.15,SSW,193,0.0,0.0,95,0.00,,---,0.00,VWS V14.01,2013-01-27 06:10:00,
2013-01-27 00:15:00,52.6,51.2,30.14,SSW,192,0.0,0.0,95,0.00,,---,0.00,VWS V14.01,2013-01-27 06:15:00,
2013-01-27 00:20:00,52.6,51.2,30.14,SSW,192,0.0,0.0,95,0.00,,---,0.00,VWS V14.01,2013-01-27 06:20:00,
2013-01-27 00:25:00,52.5,51.1,30.14,SSW,192,0.0,0.0,95,0.00,,---,0.00,VWS V14.01,2013-01-27 06:25:00,
2013-01-27 00:30:00,52.5,51.1,30.15,SSW,192,0.0,0.0,95,0.00,,---,0.00,VWS V14.01,2013-01-27 06:30:00,
2013-01-27 00:35:00,52.3,50.9,30.15,SSW,192,0.0,0.0,95,0.00,,---,0.00,VWS V14.01,2013-01-27 06:35:00,
2013-01-27 00:40:00,52.3,50.9,30.15,SSW,192,0.0,0.0,95,0.00,,---,0.00,VWS V14.01,2013-01-27 06:40:00,
2013-01-27 00:45:00,52.3,51.2,30.15,SSW,192,0.0,0.0,96,0.00,,---,0.00,VWS V14.01,2013-01-27 06:45:00,
2013-01-27 00:50:00,52.2,50.8,30.15,SSW,192,0.0,0.0,95,0.00,,---,0.00,VWS V14.01,2013-01-27 06:50:00,
2013-01-27 00:56:00,52.0,50.9,30.15,SSW,192,0.0,0.0,96,0.00,,---,0.00,VWS V14.01,2013-01-27 06:56:00,
2013-01-27 01:00:00,52.0,50.9,30.15,SSW,192,0.0,0.0,96,0.00,,---,0.00,VWS V14.01,2013-01-27 07:00:00,
2013-01-27 01:01:00,52.0,50.6,30.15,SSW,192,0.0,0.0,95,0.00,,---,0.00,VWS V14.01,2013-01-27 07:01:00,
2013-01-27 01:06:00,51.9,50.8,30.15,SSW,192,0.0,0.0,96,0.00,,---,0.00,VWS V14.01,2013-01-27 07:06:00,
2013-01-27 01:13:00,51.6,50.5,30.15,SSW,192,0.0,0.0,96,0.00,,---,0.00,VWS V14.01,2013-01-27 07:13:00,
2013-01-27 01:15:00,51.6,50.5,30.15,SSW,192,0.0,0.0,96,0.00,,---,0.00,VWS V14.01,2013-01-27 07:15:00,
2013-01-27 01:18:00,51.4,50.3,30.15,SSW,192,0.0,0.0,96,0.00,,---,0.00,VWS V14.01,2013-01-27 07:18:00,
2013-01-27 01:23:00,51.1,50.0,30.15,SSW,192,0.0,0.0,96,0.00,,---,0.00,VWS V14.01,2013-01-27 07:23:00,
2013-01-27 01:28:00,51.0,49.9,30.15,SSW,192,0.0,0.0,96,0.00,,---,0.00,VWS V14.01,2013-01-27 07:28:00,
2013-01-27 01:30:00,51.0,49.9,30.15,SSW,192,0.0,0.0,96,0.00,,---,0.00,VWS V14.01,2013-01-27 07:30:00,
2013-01-27 01:33:00,51.0,49.9,30.15,SSW,192,0.0,0.0,96,0.00,,---,0.00,VWS V14.01,2013-01-27 07:33:00,
2013-01-27 01:38:00,51.1,50.0,30.15,SSW,192,0.0,0.0,96,0.00,,---,0.00,VWS V14.01,2013-01-27 07:38:00,
2013-01-27 01:43:00,51.3,50.2,30.15,SSW,192,0.0,0.0,96,0.00,,---,0.00,VWS V14.01,2013-01-27 07:43:00,
2013-01-27 01:45:00,51.3,50.2,30.15,SSW,192,0.0,0.0,96,0.00,,---,0.00,VWS V14.01,2013-01-27 07:45:00,
2013-01-27 01:49:00,51.1,50.0,30.15,SSW,192,0.0,0.0,96,0.00,,---,0.00,VWS V14.01,2013-01-27 07:49:00,
2013-01-27 01:54:00,51.0,49.9,30.15,SSW,192,0.0,0.0,96,0.00,,---,0.00,VWS V14.01,2013-01-27 07:54:00,
2013-01-27 01:59:00,50.8,49.7,30.15,SSW,192,0.0,0.0,96,0.00,,---,0.00,VWS V14.01,2013-01-27 07:59:00,
2013-01-27 02:00:00,50.8,49.7,30.15,SSW,192,0.0,0.0,96,0.00,,---,0.00,VWS V14.01,2013-01-27 08:00:00,
2013-01-27 02:04:00,50.8,49.7,30.15,SSW,192,0.0,0.0,96,0.00,,---,0.00,VWS V14.01,2013-01-27 08:04:00,
2013-01-27 02:09:00,50.8,49.7,30.15,SSW,192,0.0,0.0,96,0.00,,---,0.00,VWS V14.01,2013-01-27 08:09:00,
2013-01-27 02:14:00,50.7,49.6,30.15,SSW,192,0.0,0.0,96,0.00,,---,0.00,VWS V14.01,2013-01-27 08:14:00,
2013-01-27 02:15:00,50.7,49.6,30.15,SSW,192,0.0,0.0,96,0.00,,---,0.00,VWS V14.01,2013-01-27 08:15:00,
2013-01-27 02:19:00,50.5,49.4,30.15,SSW,192,0.0,0.0,96,0.00,,---,0.00,VWS V14.01,2013-01-27 08:19:00,
2013-01-27 02:24:00,50.4,49.3,30.15,SSW,192,0.0,0.0,96,0.00,,---,0.00,VWS V14.01,2013-01-27 08:24:00,
2013-01-27 02:29:00,50.4,49.3,30.15,SSW,192,0.0,0.0,96,0.00,,---,0.00,VWS V14.01,2013-01-27 08:29:00,
2013-01-27 02:30:00,50.4,49.3,30.15,SSW,192,0.0,0.0,96,0.00,,---,0.00,VWS V14.01,2013-01-27 08:30:00,
2013-01-27 02:34:00,50.4,49.3,30.15,SSW,192,0.0,0.0,96,0.00,,---,0.00,VWS V14.01,2013-01-27 08:34:00,
2013-01-27 02:40:00,50.2,49.1,30.15,SSW,192,0.0,0.0,96,0.00,,---,0.00,VWS V14.01,2013-01-27 08:40:00,
2013-01-27 02:45:00,50.2,49.1,30.15,SSW,192,0.0,0.0,96,0.00,,---,0.00,VWS V14.01,2013-01-27 08:45:00,
2013-01-27 02:50:00,50.2,49.1,30.15,SSW,192,0.0,0.0,96,0.00,,---,0.00,VWS V14.01,2013-01-27 08:50:00,
2013-01-27 02:55:00,50.2,49.1,30.15,SSW,192,0.0,0.0,96,0.00,,---,0.00,VWS V14.01,2013-01-27 08:55:00,
2013-01-27 03:00:00,50.1,49.0,30.15,SSW,192,0.0,0.0,96,0.00,,---,0.00,VWS V14.01,2013-01-27 09:00:00,
2013-01-27 03:05:00,49.9,48.8,30.15,SSW,192,0.0,0.0,96,0.00,,---,0.00,VWS V14.01,2013-01-27 09:05:00,
2013-01-27 03:10:00,49.6,48.5,30.15,SSW,192,0.0,0.0,96,0.00,,---,0.00,VWS V14.01,2013-01-27 09:10:00,
2013-01-27 03:15:00,49.6,48.5,30.15,SSW,192,0.0,0.0,96,0.00,,---,0.00,VWS V14.01,2013-01-27 09:15:00,
2013-01-27 03:20:00,49.6,48.5,30.15,SSW,192,0.0,0.0,96,0.00,,---,0.00,VWS V14.01,2013-01-27 09:20:00,
2013-01-27 03:26:00,49.6,48.5,30.15,SSW,192,0.0,0.0,96,0.00,,---,0.00,VWS V14.01,2013-01-27 09:26:00,
2013-01-27 03:30:00,49.6,48.5,30.14,SSW,192,0.0,0.0,96,0.00,,---,0.00,VWS V14.01,2013-01-27 09:30:00,
2013-01-27 03:31:00,49.6,48.5,30.14,SSW,192,0.0,0.0,96,0.00,,---,0.00,VWS V14.01,2013-01-27 09:31:00,
2013-01-27 03:36:00,49.5,48.4,30.14,SSW,192,0.0,0.0,96,0.00,,---,0.00,VWS V14.01,2013-01-27 09:36:00,
2013-01-27 03:41:00,49.4,48.3,30.14,SSW,192,0.0,0.0,96,0.00,,---,0.00,VWS V14.01,2013-01-27 09:41:00,
2013-01-27 03:45:00,49.4,48.6,30.14,SSW,192,0.0,0.0,97,0.00,,---,0.00,VWS V14.01,2013-01-27 09:45:00,
2013-01-27 03:46:00,49.4,48.6,30.14,SSW,192,0.0,0.0,97,0.00,,---,0.00,VWS V14.01,2013-01-27 09:46:00,
2013-01-27 03:51:00,49.4,48.6,30.14,SSW,192,0.0,0.0,97,0.00,,---,0.00,VWS V14.01,2013-01-27 09:51:00,
2013-01-27 03:56:00,49.5,48.7,30.14,SSW,192,0.0,0.0,97,0.00,,---,0.00,VWS V14.01,2013-01-27 09:56:00,
2013-01-27 04:00:00,49.4,48.6,30.14,SSW,192,0.0,0.0,97,0.00,,---,0.00,VWS V14.01,2013-01-27 10:00:00,
2013-01-27 04:01:00,49.4,48.6,30.14,SSW,192,0.0,0.0,97,0.00,,---,0.00,VWS V14.01,2013-01-27 10:01:00,
2013-01-27 04:06:00,49.4,48.6,30.14,SSW,192,0.0,0.0,97,0.00,,---,0.00,VWS V14.01,2013-01-27 10:06:00,
2013-01-27 04:12:00,49.2,48.4,30.14,SSW,192,0.0,0.0,97,0.00,,---,0.00,VWS V14.01,2013-01-27 10:12:00,
2013-01-27 04:15:00,49.2,48.4,30.14,SSW,192,0.0,0.0,97,0.00,,---,0.00,VWS V14.01,2013-01-27 10:15:00,
2013-01-27 04:17:00,49.2,48.4,30.14,SSW,192,0.0,0.0,97,0.00,,---,0.00,VWS V14.01,2013-01-27 10:17:00,
2013-01-27 04:22:00,49.2,48.4,30.14,SSW,192,0.0,0.0,97,0.00,,---,0.00,VWS V14.01,2013-01-27 10:22:00,
2013-01-27 04:27:00,49.2,48.4,30.14,SSW,192,0.0,0.0,97,0.00,,---,0.00,VWS V14.01,2013-01-27 10:27:00,
2013-01-27 04:30:00,49.1,48.3,30.14,SSW,192,0.0,0.0,97,0.00,,---,0.00,VWS V14.01,2013-01-27 10:30:00,
2013-01-27 04:32:00,49.1,48.3,30.14,SSW,192,0.0,0.0,97,0.00,,---,0.00,VWS V14.01,2013-01-27 10:32:00,
2013-01-27 04:37:00,48.9,48.1,30.14,SSW,192,0.0,0.0,97,0.00,,---,0.00,VWS V14.01,2013-01-27 10:37:00,
2013-01-27 04:42:00,48.8,48.0,30.14,SSW,192,0.0,0.0,97,0.00,,---,0.00,VWS V14.01,2013-01-27 10:42:00,
2013-01-27 04:45:00,48.8,48.0,30.14,SSW,192,0.0,0.0,97,0.00,,---,0.00,VWS V14.01,2013-01-27 10:45:00,
2013-01-27 04:47:00,48.9,48.1,30.14,SSW,192,0.0,0.0,97,0.00,,---,0.00,VWS V14.01,2013-01-27 10:47:00,
2013-01-27 04:52:00,48.6,47.8,30.14,SSW,192,0.0,0.0,97,0.00,,---,0.00,VWS V14.01,2013-01-27 10:52:00,
2013-01-27 04:57:00,48.5,47.7,30.14,SSW,192,0.0,0.0,97,0.00,,---,0.00,VWS V14.01,2013-01-27 10:57:00,
2013-01-27 05:00:00,48.5,47.7,30.14,SSW,192,0.0,0.0,97,0.00,,---,0.00,VWS V14.01,2013-01-27 11:00:00,
2013-01-27 05:02:00,48.5,47.7,30.14,SSW,192,0.0,0.0,97,0.00,,---,0.00,VWS V14.01,2013-01-27 11:02:00,
2013-01-27 05:08:00,48.5,47.7,30.14,SSW,192,0.0,0.0,97,0.00,,---,0.00,VWS V14.01,2013-01-27 11:08:00,
2013-01-27 05:13:00,48.5,47.7,30.14,SSW,192,0.0,0.0,97,0.00,,---,0.00,VWS V14.01,2013-01-27 11:13:00,
2013-01-27 05:15:00,48.5,47.7,30.14,SSW,192,0.0,0.0,97,0.00,,---,0.00,VWS V14.01,2013-01-27 11:15:00,
2013-01-27 05:18:00,48.5,47.7,30.14,SSW,192,0.0,0.0,97,0.00,,---,0.00,VWS V14.01,2013-01-27 11:18:00,
2013-01-27 05:23:00,48.5,47.7,30.14,SSW,192,0.0,0.0,97,0.00,,---,0.00,VWS V14.01,2013-01-27 11:23:00,
2013-01-27 05:28:00,48.6,47.8,30.14,SSW,192,0.0,2.0,97,0.00,,---,0.00,VWS V14.01,2013-01-27 11:28:00,
2013-01-27 05:30:00,48.6,47.8,30.14,SE,140,0.0,2.0,97,0.00,,---,0.00,VWS V14.01,2013-01-27 11:30:00,
2013-01-27 05:33:00,48.3,47.5,30.14,SE,133,0.0,1.0,97,0.00,,---,0.00,VWS V14.01,2013-01-27 11:33:00,
2013-01-27 05:38:00,48.3,47.5,30.14,ESE,119,1.0,2.0,97,0.00,,---,0.00,VWS V14.01,2013-01-27 11:38:00,
2013-01-27 05:43:00,48.2,47.4,30.14,SE,127,0.0,2.0,97,0.00,,---,0.00,VWS V14.01,2013-01-27 11:43:00,
2013-01-27 05:45:00,48.2,47.4,30.14,SE,127,0.0,2.0,97,0.00,,---,0.00,VWS V14.01,2013-01-27 11:45:00,
2013-01-27 05:48:00,48.2,47.4,30.14,ESE,123,0.0,1.0,97,0.00,,---,0.00,VWS V14.01,2013-01-27 11:48:00,
2013-01-27 05:53:00,48.0,47.2,30.14,ESE,123,0.0,1.0,97,0.00,,---,0.00,VWS V14.01,2013-01-27 11:53:00,
2013-01-27 05:58:00,48.0,47.2,30.14,ESE,123,0.0,1.0,97,0.00,,---,0.00,VWS V14.01,2013-01-27 11:58:00,
2013-01-27 06:00:00,48.2,47.4,30.14,ESE,123,0.0,1.0,97,0.00,,---,0.00,VWS V14.01,2013-01-27 12:00:00,
2013-01-27 06:04:00,48.3,47.5,30.14,ESE,123,0.0,1.0,97,0.00,,---,0.00,VWS V14.01,2013-01-27 12:04:00,
2013-01-27 06:09:00,48.6,48.1,30.14,ESE,115,0.0,2.0,98,0.00,,---,0.00,VWS V14.01,2013-01-27 12:09:00,
2013-01-27 06:14:00,48.8,48.3,30.14,ESE,116,0.0,2.0,98,0.00,,---,0.00,VWS V14.01,2013-01-27 12:14:00,
2013-01-27 06:15:00,48.8,48.3,30.14,ESE,116,0.0,2.0,98,0.00,,---,0.00,VWS V14.01,2013-01-27 12:15:00,
2013-01-27 06:19:00,48.8,48.0,30.14,ESE,116,0.0,0.0,97,0.00,,---,0.00,VWS V14.01,2013-01-27 12:19:00,
2013-01-27 06:24:00,48.8,48.3,30.14,ESE,116,0.0,0.0,98,0.00,,---,0.00,VWS V14.01,2013-01-27 12:24:00,
2013-01-27 06:29:00,48.9,48.4,30.15,ESE,116,0.0,1.0,98,0.00,,---,0.00,VWS V14.01,2013-01-27 12:29:00,
2013-01-27 06:30:00,48.9,48.4,30.15,ESE,115,0.0,1.0,98,0.00,,---,0.00,VWS V14.01,2013-01-27 12:30:00,
2013-01-27 06:34:00,48.9,48.4,30.15,ESE,119,0.0,3.0,98,0.00,,---,0.00,VWS V14.01,2013-01-27 12:34:00,
2013-01-27 06:39:00,49.1,48.6,30.15,ESE,119,0.0,3.0,98,0.00,,---,0.00,VWS V14.01,2013-01-27 12:39:00,
2013-01-27 06:44:00,49.1,48.6,30.15,ESE,119,0.0,0.0,98,0.00,,---,0.00,VWS V14.01,2013-01-27 12:44:00,
2013-01-27 06:45:00,49.1,48.6,30.15,ESE,119,0.0,3.0,98,0.00,,---,0.00,VWS V14.01,2013-01-27 12:45:00,
2013-01-27 06:49:00,48.9,48.1,30.15,ESE,119,0.0,0.0,97,0.00,,---,0.00,VWS V14.01,2013-01-27 12:49:00,
2013-01-27 06:55:00,49.1,48.6,30.15,ESE,119,0.0,0.0,98,0.00,,---,0.00,VWS V14.01,2013-01-27 12:55:00,
2013-01-27 07:00:00,48.8,48.0,30.16,ESE,119,0.0,0.0,97,0.00,,---,0.00,VWS V14.01,2013-01-27 13:00:00,
2013-01-27 07:05:00,48.6,47.8,30.16,ESE,113,0.0,1.0,97,0.00,,---,0.00,VWS V14.01,2013-01-27 13:05:00,
2013-01-27 07:10:00,48.6,47.8,30.16,ESE,113,0.0,2.0,97,0.00,,---,0.00,VWS V14.01,2013-01-27 13:10:00,
2013-01-27 07:15:00,48.6,48.1,30.16,ESE,102,0.0,0.0,98,0.00,,---,0.00,VWS V14.01,2013-01-27 13:15:00,
2013-01-27 07:20:00,48.8,48.3,30.16,ESE,103,0.0,0.0,98,0.01,,---,0.01,VWS V14.01,2013-01-27 13:20:00,
2013-01-27 07:25:00,49.1,48.6,30.16,ESE,115,1.0,4.0,98,0.01,,---,0.01,VWS V14.01,2013-01-27 13:25:00,
2013-01-27 07:30:00,49.5,49.0,30.16,ESE,103,3.0,3.0,98,0.01,,---,0.01,VWS V14.01,2013-01-27 13:30:00,
2013-01-27 07:35:00,50.4,49.9,30.16,ESE,123,1.0,5.0,98,0.01,,---,0.01,VWS V14.01,2013-01-27 13:35:00,
2013-01-27 07:40:00,51.7,51.4,30.16,SSE,164,0.0,5.0,99,0.01,,---,0.01,VWS V14.01,2013-01-27 13:40:00,
2013-01-27 07:45:00,52.8,52.5,30.17,SSE,164,0.0,0.0,99,0.01,,---,0.01,VWS V14.01,2013-01-27 13:45:00,
2013-01-27 07:50:00,53.5,53.2,30.17,SSE,164,0.0,0.0,99,0.01,,---,0.01,VWS V14.01,2013-01-27 13:50:00,
2013-01-27 07:56:00,54.4,54.1,30.17,ESE,104,0.0,1.0,99,0.01,,---,0.01,VWS V14.01,2013-01-27 13:56:00,
2013-01-27 08:00:00,54.8,54.5,30.17,ESE,110,0.0,1.0,99,0.01,,---,0.01,VWS V14.01,2013-01-27 14:00:00,
2013-01-27 08:01:00,55.0,54.7,30.17,ESE,109,0.0,0.0,99,0.01,,---,0.01,VWS V14.01,2013-01-27 14:01:00,
2013-01-27 08:06:00,55.3,55.0,30.17,ESE,119,0.0,0.0,99,0.01,,---,0.01,VWS V14.01,2013-01-27 14:06:00,
2013-01-27 08:11:00,55.7,55.4,30.17,ESE,119,0.0,0.0,99,0.01,,---,0.01,VWS V14.01,2013-01-27 14:11:00,
2013-01-27 08:15:00,55.9,55.6,30.17,ESE,119,0.0,0.0,99,0.01,,---,0.01,VWS V14.01,2013-01-27 14:15:00,
2013-01-27 08:16:00,56.0,55.7,30.17,ESE,119,0.0,0.0,99,0.01,,---,0.01,VWS V14.01,2013-01-27 14:16:00,
2013-01-27 08:21:00,56.3,56.0,30.17,ESE,113,2.0,6.0,99,0.01,,---,0.01,VWS V14.01,2013-01-27 14:21:00,
2013-01-27 08:26:00,56.6,56.3,30.17,ESE,121,1.0,6.0,99,0.01,,---,0.01,VWS V14.01,2013-01-27 14:26:00,
2013-01-27 08:30:00,56.7,56.4,30.18,SE,145,0.0,6.0,99,0.01,,---,0.01,VWS V14.01,2013-01-27 14:30:00,
2013-01-27 08:31:00,56.9,56.6,30.18,SE,145,0.0,1.0,99,0.00,,---,0.01,VWS V14.01,2013-01-27 14:31:00,
2013-01-27 08:36:00,57.2,56.9,30.18,ESE,111,0.0,6.0,99,0.00,,---,0.01,VWS V14.01,2013-01-27 14:36:00,
2013-01-27 08:41:00,57.5,57.2,30.18,SE,132,4.0,6.0,99,0.00,,---,0.01,VWS V14.01,2013-01-27 14:41:00,
2013-01-27 08:45:00,57.5,57.2,30.18,SSE,153,3.0,6.0,99,0.00,,---,0.01,VWS V14.01,2013-01-27 14:45:00,
2013-01-27 08:46:00,57.6,57.3,30.18,SE,136,0.0,3.0,99,0.00,,---,0.01,VWS V14.01,2013-01-27 14:46:00,
2013-01-27 08:51:00,58.0,57.7,30.18,SE,140,1.0,9.0,99,0.00,,---,0.01,VWS V14.01,2013-01-27 14:51:00,
2013-01-27 08:57:00,58.1,57.8,30.18,SE,128,0.0,9.0,99,0.00,,---,0.01,VWS V14.01,2013-01-27 14:57:00,
2013-01-27 09:00:00,58.3,58.0,30.18,SE,129,0.0,9.0,99,0.00,,---,0.01,VWS V14.01,2013-01-27 15:00:00,
2013-01-27 09:02:00,58.4,58.1,30.18,SE,130,0.0,0.0,99,0.00,,---,0.01,VWS V14.01,2013-01-27 15:02:00,
2013-01-27 09:07:00,58.6,58.3,30.18,SE,128,0.0,3.0,99,0.00,,---,0.01,VWS V14.01,2013-01-27 15:07:00,
2013-01-27 09:12:00,58.4,57.8,30.18,SE,139,0.0,6.0,98,0.00,,---,0.01,VWS V14.01,2013-01-27 15:12:00,
2013-01-27 09:15:00,58.7,58.1,30.18,ESE,119,1.0,6.0,98,0.00,,---,0.01,VWS V14.01,2013-01-27 15:15:00,
2013-01-27 09:17:00,59.2,58.9,30.18,SSE,154,3.0,5.0,99,0.00,,---,0.01,VWS V14.01,2013-01-27 15:17:00,
2013-01-27 09:22:00,59.3,58.7,30.18,ESE,117,4.0,6.0,98,0.00,,---,0.01,VWS V14.01,2013-01-27 15:22:00,
2013-01-27 09:27:00,59.5,58.9,30.18,SE,146,2.0,11.0,98,0.00,,---,0.01,VWS V14.01,2013-01-27 15:27:00,
2013-01-27 09:30:00,59.5,58.9,30.19,South,171,6.0,11.0,98,0.00,,---,0.01,VWS V14.01,2013-01-27 15:30:00,
2013-01-27 09:32:00,59.8,59.2,30.19,SE,146,7.0,7.0,98,0.00,,---,0.01,VWS V14.01,2013-01-27 15:32:00,
2013-01-27 09:37:00,60.1,59.5,30.19,SE,126,4.0,9.0,98,0.00,,---,0.01,VWS V14.01,2013-01-27 15:37:00,
2013-01-27 09:42:00,60.5,59.9,30.19,SSE,155,0.0,9.0,98,0.00,,---,0.01,VWS V14.01,2013-01-27 15:42:00,
2013-01-27 09:45:00,60.7,60.1,30.19,South,171,0.0,9.0,98,0.00,,---,0.01,VWS V14.01,2013-01-27 15:45:00,
2013-01-27 09:47:00,60.7,59.8,30.19,SSE,163,0.0,8.0,97,0.00,,---,0.01,VWS V14.01,2013-01-27 15:47:00,
2013-01-27 09:52:00,60.9,59.8,30.19,SSE,158,0.0,8.0,96,0.00,,---,0.01,VWS V14.01,2013-01-27 15:52:00,
2013-01-27 09:58:00,61.6,60.5,30.19,SSE,163,0.0,8.0,96,0.00,,---,0.01,VWS V14.01,2013-01-27 15:58:00,
2013-01-27 10:00:00,62.0,60.8,30.19,SE,138,4.0,8.0,96,0.00,,---,0.01,VWS V14.01,2013-01-27 16:00:00,
2013-01-27 10:03:00,62.6,61.2,30.19,SE,140,4.0,7.0,95,0.00,,---,0.01,VWS V14.01,2013-01-27 16:03:00,
2013-01-27 10:08:00,63.4,61.3,30.19,SE,136,0.0,7.0,93,0.00,,---,0.01,VWS V14.01,2013-01-27 16:08:00,
2013-01-27 10:13:00,64.2,61.5,30.19,SE,138,0.0,7.0,91,0.00,,---,0.01,VWS V14.01,2013-01-27 16:13:00,
2013-01-27 10:15:00,64.5,61.8,30.19,SSE,148,0.0,7.0,91,0.00,,---,0.01,VWS V14.01,2013-01-27 16:15:00,
2013-01-27 10:18:00,65.2,61.6,30.19,SSE,157,0.0,0.0,88,0.00,,---,0.01,VWS V14.01,2013-01-27 16:18:00,
2013-01-27 10:23:00,65.8,60.8,30.19,SSE,168,3.0,10.0,84,0.00,,---,0.01,VWS V14.01,2013-01-27 16:23:00,
2013-01-27 10:28:00,66.3,60.3,30.19,South,169,0.0,10.0,81,0.00,,---,0.01,VWS V14.01,2013-01-27 16:28:00,
2013-01-27 10:30:00,66.3,60.0,30.19,SSW,197,5.0,10.0,80,0.00,,---,0.01,VWS V14.01,2013-01-27 16:30:00,
2013-01-27 10:33:00,66.8,60.1,30.19,SSE,165,0.0,7.0,79,0.00,,---,0.01,VWS V14.01,2013-01-27 16:33:00,
2013-01-27 10:38:00,67.1,60.0,30.19,South,169,0.0,9.0,78,0.00,,---,0.01,VWS V14.01,2013-01-27 16:38:00,
2013-01-27 10:43:00,67.3,59.8,30.18,ESE,120,4.0,10.0,77,0.00,,---,0.01,VWS V14.01,2013-01-27 16:43:00,
2013-01-27 10:45:00,67.3,59.8,30.18,SE,142,0.0,10.0,77,0.00,,---,0.01,VWS V14.01,2013-01-27 16:45:00,
2013-01-27 10:49:00,67.9,60.4,30.18,SSE,150,3.0,10.0,77,0.00,,---,0.01,VWS V14.01,2013-01-27 16:49:00,
2013-01-27 10:54:00,68.9,60.7,30.18,SSE,167,5.0,10.0,75,0.00,,---,0.01,VWS V14.01,2013-01-27 16:54:00,
2013-01-27 10:59:00,69.4,60.4,30.18,SE,141,5.0,10.0,73,0.00,,---,0.01,VWS V14.01,2013-01-27 16:59:00,
2013-01-27 11:00:00,69.4,60.4,30.18,SSE,163,0.0,10.0,73,0.00,,---,0.01,VWS V14.01,2013-01-27 17:00:00,
2013-01-27 11:04:00,70.1,60.7,30.18,South,188,12.0,13.0,72,0.00,,---,0.01,VWS V14.01,2013-01-27 17:04:00,
2013-01-27 11:09:00,70.4,60.6,30.18,SSE,147,0.0,14.0,71,0.00,,---,0.01,VWS V14.01,2013-01-27 17:09:00,
2013-01-27 11:14:00,70.6,60.8,30.18,SSE,160,7.0,14.0,71,0.00,,---,0.01,VWS V14.01,2013-01-27 17:14:00,
2013-01-27 11:15:00,70.6,60.8,30.18,SSE,160,7.0,14.0,71,0.00,,---,0.01,VWS V14.01,2013-01-27 17:15:00,
2013-01-27 11:19:00,70.8,60.1,30.18,South,179,0.0,10.0,69,0.00,,---,0.01,VWS V14.01,2013-01-27 17:19:00,
2013-01-27 11:24:00,70.9,59.8,30.18,SSW,200,10.0,12.0,68,0.00,,---,0.01,VWS V14.01,2013-01-27 17:24:00,
2013-01-27 11:29:00,70.8,59.7,30.17,SSW,201,9.0,9.0,68,0.00,,---,0.01,VWS V14.01,2013-01-27 17:29:00,
2013-01-27 11:30:00,70.8,59.7,30.17,SSE,162,9.0,16.0,68,0.00,,---,0.01,VWS V14.01,2013-01-27 17:30:00,
2013-01-27 11:35:00,71.3,60.2,30.17,SSE,168,3.0,11.0,68,0.00,,---,0.01,VWS V14.01,2013-01-27 17:35:00,
2013-01-27 11:40:00,71.5,60.0,30.17,South,190,4.0,15.0,67,0.00,,---,0.01,VWS V14.01,2013-01-27 17:40:00,
2013-01-27 11:45:00,71.8,60.3,30.17,SSE,156,6.0,6.0,67,0.00,,---,0.01,VWS V14.01,2013-01-27 17:45:00,
2013-01-27 11:50:00,71.8,59.8,30.17,SSE,154,1.0,7.0,66,0.00,,---,0.01,VWS V14.01,2013-01-27 17:50:00,
2013-01-27 11:55:00,71.6,59.7,30.17,SE,137,0.0,12.0,66,0.00,,---,0.01,VWS V14.01,2013-01-27 17:55:00,
2013-01-27 12:00:00,71.8,59.0,30.16,South,178,10.0,10.0,64,0.00,,---,0.01,VWS V14.01,2013-01-27 18:00:00,
2013-01-27 12:05:00,72.3,59.9,30.16,SSW,202,6.0,16.0,65,0.00,,---,0.01,VWS V14.01,2013-01-27 18:05:00,
2013-01-27 12:10:00,72.7,59.4,30.16,South,178,7.0,16.0,63,0.00,,---,0.01,VWS V14.01,2013-01-27 18:10:00,
2013-01-27 12:15:00,72.7,59.4,30.15,South,184,3.0,3.0,63,0.00,,---,0.01,VWS V14.01,2013-01-27 18:15:00,
2013-01-27 12:21:00,72.1,59.3,30.15,SSW,205,9.0,12.0,64,0.00,,---,0.01,VWS V14.01,2013-01-27 18:21:00,
2013-01-27 12:26:00,72.0,59.6,30.15,SSW,196,10.0,12.0,65,0.00,,---,0.01,VWS V14.01,2013-01-27 18:26:00,
2013-01-27 12:30:00,72.1,59.7,30.14,SSE,153,4.0,18.0,65,0.00,,---,0.01,VWS V14.01,2013-01-27 18:30:00,
2013-01-27 12:31:00,72.1,59.7,30.14,SE,140,0.0,8.0,65,0.00,,---,0.01,VWS V14.01,2013-01-27 18:31:00,
2013-01-27 12:36:00,72.1,59.7,30.14,South,172,0.0,8.0,65,0.00,,---,0.01,VWS V14.01,2013-01-27 18:36:00,
2013-01-27 12:41:00,72.1,59.3,30.14,SSE,166,0.0,8.0,64,0.00,,---,0.01,VWS V14.01,2013-01-27 18:41:00,
2013-01-27 12:45:00,72.1,58.8,30.14,SSW,199,4.0,9.0,63,0.00,,---,0.01,VWS V14.01,2013-01-27 18:45:00,
2013-01-27 12:46:00,72.0,58.7,30.14,South,175,1.0,13.0,63,0.00,,---,0.01,VWS V14.01,2013-01-27 18:46:00,
2013-01-27 12:51:00,72.5,59.2,30.14,SSE,156,6.0,13.0,63,0.00,,---,0.01,VWS V14.01,2013-01-27 18:51:00,
2013-01-27 12:56:00,72.8,58.6,30.14,South,173,12.0,13.0,61,0.00,,---,0.01,VWS V14.01,2013-01-27 18:56:00,
2013-01-27 13:00:00,72.5,58.8,30.13,South,171,4.0,13.0,62,0.00,,---,0.01,VWS V14.01,2013-01-27 19:00:00,
2013-01-27 13:01:00,72.3,58.6,30.13,SSW,207,7.0,11.0,62,0.00,,---,0.01,VWS V14.01,2013-01-27 19:01:00,
2013-01-27 13:06:00,72.1,58.8,30.13,SSW,208,6.0,11.0,63,0.00,,---,0.01,VWS V14.01,2013-01-27 19:06:00,
2013-01-27 13:11:00,72.0,58.3,30.13,South,188,2.0,11.0,62,0.00,,---,0.01,VWS V14.01,2013-01-27 19:11:00,
2013-01-27 13:15:00,72.1,58.4,30.12,SSE,150,5.0,11.0,62,0.00,,---,0.01,VWS V14.01,2013-01-27 19:15:00,
2013-01-27 13:17:00,72.5,59.2,30.12,South,173,5.0,10.0,63,0.00,,---,0.01,VWS V14.01,2013-01-27 19:17:00,
2013-01-27 13:22:00,73.3,58.6,30.12,SSE,158,0.0,10.0,60,0.00,,---,0.01,VWS V14.01,2013-01-27 19:22:00,
2013-01-27 13:27:00,73.7,58.5,30.12,South,189,4.0,10.0,59,0.00,,---,0.01,VWS V14.01,2013-01-27 19:27:00,
2013-01-27 13:30:00,73.5,58.8,30.12,SSW,192,5.0,10.0,60,0.00,,---,0.01,VWS V14.01,2013-01-27 19:30:00,
2013-01-27 13:32:00,73.2,58.0,30.12,South,188,6.0,11.0,59,0.00,,---,0.01,VWS V14.01,2013-01-27 19:32:00,
2013-01-27 13:37:00,73.2,59.4,30.12,South,181,0.0,11.0,62,0.00,,---,0.01,VWS V14.01,2013-01-27 19:37:00,
2013-01-27 13:42:00,73.2,59.0,30.12,South,180,5.0,11.0,61,0.00,,---,0.01,VWS V14.01,2013-01-27 19:42:00,
2013-01-27 13:45:00,73.2,59.0,30.11,SSW,192,5.0,11.0,61,0.00,,---,0.01,VWS V14.01,2013-01-27 19:45:00,
2013-01-27 13:47:00,73.2,58.0,30.11,SSW,195,5.0,12.0,59,0.00,,---,0.01,VWS V14.01,2013-01-27 19:47:00,
2013-01-27 13:52:00,74.2,59.0,30.11,South,189,13.0,13.0,59,0.00,,---,0.01,VWS V14.01,2013-01-27 19:52:00,
2013-01-27 13:57:00,74.2,57.5,30.11,South,175,0.0,13.0,56,0.00,,---,0.01,VWS V14.01,2013-01-27 19:57:00,
2013-01-27 14:00:00,73.9,57.7,30.11,South,178,1.0,13.0,57,0.00,,---,0.01,VWS V14.01,2013-01-27 20:00:00,
2013-01-27 14:03:00,73.7,58.5,30.11,SSE,148,0.0,5.0,59,0.00,,---,0.01,VWS V14.01,2013-01-27 20:03:00,
2013-01-27 14:08:00,74.0,58.3,30.11,SSE,156,0.0,9.0,58,0.00,,---,0.01,VWS V14.01,2013-01-27 20:08:00,
2013-01-27 14:13:00,73.9,58.7,30.11,South,178,6.0,9.0,59,0.00,,---,0.01,VWS V14.01,2013-01-27 20:13:00,
2013-01-27 14:15:00,73.7,58.5,30.11,South,172,1.0,9.0,59,0.00,,---,0.01,VWS V14.01,2013-01-27 20:15:00,
2013-01-27 14:18:00,73.3,58.6,30.11,SSE,163,3.0,6.0,60,0.00,,---,0.01,VWS V14.01,2013-01-27 20:18:00,
2013-01-27 14:23:00,73.2,58.0,30.11,SSE,149,0.0,6.0,59,0.00,,---,0.01,VWS V14.01,2013-01-27 20:23:00,
2013-01-27 14:28:00,73.7,57.5,30.11,SSW,210,5.0,15.0,57,0.00,,---,0.01,VWS V14.01,2013-01-27 20:28:00,
2013-01-27 14:30:00,73.7,57.5,30.10,South,186,4.0,15.0,57,0.00,,---,0.01,VWS V14.01,2013-01-27 20:30:00,
2013-01-27 14:33:00,74.0,57.8,30.10,SSW,205,7.0,8.0,57,0.00,,---,0.01,VWS V14.01,2013-01-27 20:33:00,
2013-01-27 14:38:00,73.7,58.0,30.10,SSE,165,0.0,13.0,58,0.00,,---,0.01,VWS V14.01,2013-01-27 20:38:00,
2013-01-27 14:43:00,74.2,58.0,30.10,South,171,4.0,13.0,57,0.00,,---,0.01,VWS V14.01,2013-01-27 20:43:00,
2013-01-27 14:45:00,74.4,58.2,30.10,South,190,4.0,13.0,57,0.00,,---,0.01,VWS V14.01,2013-01-27 20:45:00,
2013-01-27 14:48:00,74.6,56.9,30.10,South,178,2.0,13.0,54,0.00,,---,0.01,VWS V14.01,2013-01-27 20:48:00,
2013-01-27 14:53:00,74.6,56.9,30.10,SSW,202,7.0,13.0,54,0.00,,---,0.01,VWS V14.01,2013-01-27 20:53:00,
2013-01-27 14:59:00,74.4,56.2,30.10,South,190,6.0,15.0,53,0.00,,---,0.01,VWS V14.01,2013-01-27 20:59:00,
2013-01-27 15:00:00,74.4,56.7,30.10,South,175,5.0,15.0,54,0.00,,---,0.01,VWS V14.01,2013-01-27 21:00:00,
2013-01-27 15:04:00,73.5,56.4,30.10,SW,220,0.0,14.0,55,0.00,,---,0.01,VWS V14.01,2013-01-27 21:04:00,
2013-01-27 15:09:00,73.7,57.5,30.10,SSE,163,0.0,14.0,57,0.00,,---,0.01,VWS V14.01,2013-01-27 21:09:00,
2013-01-27 15:14:00,73.9,58.7,30.10,South,170,3.0,14.0,59,0.00,,---,0.01,VWS V14.01,2013-01-27 21:14:00,
2013-01-27 15:15:00,73.9,58.7,30.10,SSE,165,0.0,14.0,59,0.00,,---,0.01,VWS V14.01,2013-01-27 21:15:00,
2013-01-27 15:19:00,73.5,59.2,30.10,SE,140,0.0,13.0,61,0.00,,---,0.01,VWS V14.01,2013-01-27 21:19:00,
2013-01-27 15:24:00,73.2,59.0,30.10,SSE,153,0.0,13.0,61,0.00,,---,0.01,VWS V14.01,2013-01-27 21:24:00,
2013-01-27 15:29:00,72.8,59.0,30.10,South,184,3.0,13.0,62,0.00,,---,0.01,VWS V14.01,2013-01-27 21:29:00,
2013-01-27 15:30:00,72.8,59.0,30.10,SSW,192,4.0,13.0,62,0.00,,---,0.01,VWS V14.01,2013-01-27 21:30:00,
2013-01-27 15:34:00,72.8,59.0,30.10,SSE,159,0.0,6.0,62,0.00,,---,0.01,VWS V14.01,2013-01-27 21:34:00,
2013-01-27 15:39:00,72.8,58.6,30.10,South,176,0.0,6.0,61,0.00,,---,0.01,VWS V14.01,2013-01-27 21:39:00,
2013-01-27 15:44:00,72.8,59.0,30.10,SSW,198,0.0,6.0,62,0.00,,---,0.01,VWS V14.01,2013-01-27 21:44:00,
2013-01-27 15:45:00,72.8,59.0,30.10,SSW,198,0.0,6.0,62,0.00,,---,0.01,VWS V14.01,2013-01-27 21:45:00,
2013-01-27 15:49:00,73.0,58.8,30.10,SSW,198,0.0,0.0,61,0.00,,---,0.01,VWS V14.01,2013-01-27 21:49:00,
2013-01-27 15:54:00,73.2,58.5,30.10,SSE,156,3.0,12.0,60,0.00,,---,0.01,VWS V14.01,2013-01-27 21:54:00,
2013-01-27 15:59:00,73.3,59.0,30.10,South,178,2.0,3.0,61,0.00,,---,0.01,VWS V14.01,2013-01-27 21:59:00,
2013-01-27 16:00:00,73.3,59.0,30.10,South,178,3.0,12.0,61,0.00,,---,0.01,VWS V14.01,2013-01-27 22:00:00,
2013-01-27 16:04:00,73.7,59.4,30.10,SSE,153,10.0,10.0,61,0.00,,---,0.01,VWS V14.01,2013-01-27 22:04:00,
2013-01-27 16:09:00,73.7,59.4,30.10,SE,132,0.0,10.0,61,0.00,,---,0.01,VWS V14.01,2013-01-27 22:09:00,
2013-01-27 16:15:00,72.8,59.0,30.10,SSE,161,0.0,0.0,62,0.00,,---,0.01,VWS V14.01,2013-01-27 22:15:00,
2013-01-27 16:20:00,72.1,58.8,30.10,SSE,154,0.0,6.0,63,0.00,,---,0.01,VWS V14.01,2013-01-27 22:20:00,
2013-01-27 16:25:00,71.8,59.0,30.10,SSE,157,0.0,6.0,64,0.00,,---,0.01,VWS V14.01,2013-01-27 22:25:00,
2013-01-27 16:30:00,71.5,59.1,30.10,SSE,168,0.0,0.0,65,0.00,,---,0.01,VWS V14.01,2013-01-27 22:30:00,
2013-01-27 16:35:00,71.3,58.9,30.10,SSE,161,0.0,0.0,65,0.00,,---,0.01,VWS V14.01,2013-01-27 22:35:00,
2013-01-27 16:40:00,70.9,58.6,30.10,SE,138,0.0,6.0,65,0.00,,---,0.01,VWS V14.01,2013-01-27 22:40:00,
2013-01-27 16:45:00,70.8,58.9,30.10,SSE,164,0.0,5.0,66,0.00,,---,0.01,VWS V14.01,2013-01-27 22:45:00,
2013-01-27 16:50:00,70.6,58.7,30.10,SSE,156,0.0,5.0,66,0.00,,---,0.01,VWS V14.01,2013-01-27 22:50:00,
2013-01-27 16:55:00,70.4,58.5,30.10,South,185,4.0,9.0,66,0.00,,---,0.01,VWS V14.01,2013-01-27 22:55:00,
2013-01-27 17:00:00,70.3,58.8,30.10,SSE,159,3.0,6.0,67,0.00,,---,0.01,VWS V14.01,2013-01-27 23:00:00,
2013-01-27 17:05:00,70.1,59.1,30.10,SE,142,1.0,6.0,68,0.00,,---,0.01,VWS V14.01,2013-01-27 23:05:00,
2013-01-27 17:10:00,69.9,58.9,30.10,South,170,8.0,9.0,68,0.00,,---,0.01,VWS V14.01,2013-01-27 23:10:00,
2013-01-27 17:15:00,69.9,58.9,30.10,SSE,153,0.0,0.0,68,0.00,,---,0.01,VWS V14.01,2013-01-27 23:15:00,
2013-01-27 17:20:00,69.8,58.8,30.10,SE,138,2.0,5.0,68,0.00,,---,0.01,VWS V14.01,2013-01-27 23:20:00,
2013-01-27 17:25:00,69.3,58.7,30.10,SE,145,0.0,5.0,69,0.00,,---,0.01,VWS V14.01,2013-01-27 23:25:00,
2013-01-27 17:30:00,68.9,58.7,30.11,SE,136,2.0,4.0,70,0.00,,---,0.01,VWS V14.01,2013-01-27 23:30:00,
2013-01-27 17:36:00,68.6,58.8,30.11,SE,138,6.0,6.0,71,0.00,,---,0.01,VWS V14.01,2013-01-27 23:36:00,
2013-01-27 17:41:00,68.4,58.6,30.11,SSE,149,4.0,7.0,71,0.00,,---,0.01,VWS V14.01,2013-01-27 23:41:00,
2013-01-27 17:45:00,68.3,58.5,30.11,SE,130,0.0,7.0,71,0.00,,---,0.01,VWS V14.01,2013-01-27 23:45:00,
2013-01-27 17:46:00,68.3,58.5,30.11,SSE,165,0.0,6.0,71,0.00,,---,0.01,VWS V14.01,2013-01-27 23:46:00,
2013-01-27 17:51:00,67.9,58.5,30.11,SSE,155,4.0,6.0,72,0.00,,---,0.01,VWS V14.01,2013-01-27 23:51:00,
2013-01-27 17:56:00,67.6,58.3,30.11,SSE,160,0.0,6.0,72,0.00,,---,0.01,VWS V14.01,2013-01-27 23:56:00,
2013-01-27 18:00:00,67.4,58.5,30.11,SE,138,0.0,8.0,73,0.00,,---,0.01,VWS V14.01,2013-01-28 00:00:00,
2013-01-27 18:01:00,67.3,58.4,30.11,SE,138,7.0,7.0,73,0.00,,---,0.01,VWS V14.01,2013-01-28 00:01:00,
2013-01-27 18:06:00,67.1,58.5,30.11,SE,138,2.0,7.0,74,0.00,,---,0.01,VWS V14.01,2013-01-28 00:06:00,
2013-01-27 18:11:00,66.9,58.3,30.11,SE,140,0.0,7.0,74,0.00,,---,0.01,VWS V14.01,2013-01-28 00:11:00,
2013-01-27 18:15:00,66.8,58.3,30.11,SSE,152,4.0,7.0,74,0.00,,---,0.01,VWS V14.01,2013-01-28 00:15:00,
2013-01-27 18:16:00,66.6,58.4,30.11,SE,142,6.0,6.0,75,0.00,,---,0.01,VWS V14.01,2013-01-28 00:16:00,
2013-01-27 18:21:00,66.4,58.2,30.11,ESE,117,4.0,11.0,75,0.00,,---,0.01,VWS V14.01,2013-01-28 00:21:00,
2013-01-27 18:27:00,66.4,58.2,30.11,SSE,161,0.0,11.0,75,0.00,,---,0.01,VWS V14.01,2013-01-28 00:27:00,
2013-01-27 18:30:00,66.4,58.2,30.12,East,94,3.0,11.0,75,0.00,,---,0.01,VWS V14.01,2013-01-28 00:30:00,
2013-01-27 18:32:00,66.4,58.2,30.12,SSE,157,0.0,6.0,75,0.00,,---,0.01,VWS V14.01,2013-01-28 00:32:00,
2013-01-27 18:37:00,66.3,58.5,30.12,SE,138,0.0,6.0,76,0.00,,---,0.01,VWS V14.01,2013-01-28 00:37:00,
2013-01-27 18:42:00,66.1,58.3,30.12,SSE,149,5.0,6.0,76,0.00,,---,0.01,VWS V14.01,2013-01-28 00:42:00,
2013-01-27 18:45:00,66.1,59.4,30.12,ESE,121,0.0,6.0,79,0.00,,---,0.01,VWS V14.01,2013-01-28 00:45:00,
2013-01-27 18:47:00,66.0,58.2,30.12,SE,126,5.0,9.0,76,0.00,,---,0.01,VWS V14.01,2013-01-28 00:47:00,
2013-01-27 18:52:00,65.8,58.4,30.12,SSE,159,5.0,10.0,77,0.00,,---,0.01,VWS V14.01,2013-01-28 00:52:00,
2013-01-27 18:57:00,65.8,58.4,30.12,SE,140,2.0,10.0,77,0.00,,---,0.01,VWS V14.01,2013-01-28 00:57:00,
2013-01-27 19:00:00,65.8,58.4,30.12,SE,140,0.0,10.0,77,0.00,,---,0.01,VWS V14.01,2013-01-28 01:00:00,
2013-01-27 19:02:00,65.6,58.2,30.12,SE,136,0.0,7.0,77,0.00,,---,0.01,VWS V14.01,2013-01-28 01:02:00,
2013-01-27 19:07:00,65.3,58.3,30.12,SSE,150,0.0,7.0,78,0.00,,---,0.01,VWS V14.01,2013-01-28 01:07:00,
2013-01-27 19:12:00,65.2,58.2,30.12,SSE,149,0.0,9.0,78,0.00,,---,0.01,VWS V14.01,2013-01-28 01:12:00,
2013-01-27 19:15:00,65.2,58.5,30.12,SSE,166,0.0,9.0,79,0.00,,---,0.01,VWS V14.01,2013-01-28 01:15:00,
2013-01-27 19:17:00,65.2,58.5,30.12,SSE,166,0.0,0.0,79,0.00,,---,0.01,VWS V14.01,2013-01-28 01:17:00,
2013-01-27 19:23:00,64.8,58.1,30.12,South,172,0.0,3.0,79,0.00,,---,0.01,VWS V14.01,2013-01-28 01:23:00,
2013-01-27 19:28:00,64.8,58.5,30.12,SSE,162,2.0,8.0,80,0.00,,---,0.01,VWS V14.01,2013-01-28 01:28:00,
2013-01-27 19:30:00,64.8,58.5,30.13,ESE,111,0.0,8.0,80,0.00,,---,0.01,VWS V14.01,2013-01-28 01:30:00,
2013-01-27 19:33:00,64.8,58.5,30.13,SE,136,2.0,4.0,80,0.00,,---,0.01,VWS V14.01,2013-01-28 01:33:00,
2013-01-27 19:38:00,64.8,58.5,30.13,SSE,153,4.0,5.0,80,0.00,,---,0.01,VWS V14.01,2013-01-28 01:38:00,
2013-01-27 19:43:00,64.7,58.4,30.13,SSE,148,4.0,6.0,80,0.00,,---,0.01,VWS V14.01,2013-01-28 01:43:00,
2013-01-27 19:45:00,64.7,58.4,30.13,SSE,148,0.0,6.0,80,0.00,,---,0.01,VWS V14.01,2013-01-28 01:45:00,
2013-01-27 19:48:00,64.5,58.5,30.13,SE,136,0.0,7.0,81,0.00,,---,0.01,VWS V14.01,2013-01-28 01:48:00,
2013-01-27 19:53:00,64.3,58.3,30.13,SE,127,0.0,7.0,81,0.00,,---,0.01,VWS V14.01,2013-01-28 01:53:00,
2013-01-27 19:58:00,64.3,58.3,30.13,SE,142,0.0,7.0,81,0.00,,---,0.01,VWS V14.01,2013-01-28 01:58:00,
2013-01-27 20:00:00,64.2,58.3,30.13,SSE,159,1.0,7.0,81,0.00,,---,0.01,VWS V14.01,2013-01-28 02:00:00,
2013-01-27 20:03:00,64.2,58.6,30.13,SE,145,0.0,2.0,82,0.00,,---,0.01,VWS V14.01,2013-01-28 02:03:00,
2013-01-27 20:09:00,63.9,58.3,30.13,SE,144,0.0,2.0,82,0.00,,---,0.01,VWS V14.01,2013-01-28 02:09:00,
2013-01-27 20:14:00,63.7,58.5,30.14,SSE,152,3.0,4.0,83,0.00,,---,0.01,VWS V14.01,2013-01-28 02:14:00,
2013-01-27 20:15:00,63.7,58.5,30.14,SSE,152,2.0,4.0,83,0.00,,---,0.01,VWS V14.01,2013-01-28 02:15:00,
2013-01-27 20:19:00,63.4,58.2,30.14,SE,132,6.0,9.0,83,0.00,,---,0.01,VWS V14.01,2013-01-28 02:19:00,
2013-01-27 20:24:00,63.4,58.5,30.14,SE,145,2.0,9.0,84,0.00,,---,0.01,VWS V14.01,2013-01-28 02:24:00,
2013-01-27 20:29:00,63.1,58.2,30.14,SE,141,3.0,9.0,84,0.00,,---,0.01,VWS V14.01,2013-01-28 02:29:00,
2013-01-27 20:30:00,63.1,58.2,30.14,SE,141,2.0,9.0,84,0.00,,---,0.01,VWS V14.01,2013-01-28 02:30:00,
2013-01-27 20:34:00,63.1,58.5,30.14,SSE,157,2.0,5.0,85,0.00,,---,0.01,VWS V14.01,2013-01-28 02:34:00,
2013-01-27 20:39:00,62.9,58.3,30.14,South,172,0.0,5.0,85,0.00,,---,0.01,VWS V14.01,2013-01-28 02:39:00,
2013-01-27 20:44:00,62.7,58.1,30.14,SSE,150,0.0,5.0,85,0.00,,---,0.01,VWS V14.01,2013-01-28 02:44:00,
2013-01-27 20:45:00,62.7,58.1,30.14,SSE,150,0.0,5.0,85,0.00,,---,0.01,VWS V14.01,2013-01-28 02:45:00,
2013-01-27 20:49:00,62.6,58.0,30.14,SSE,147,0.0,6.0,85,0.00,,---,0.01,VWS V14.01,2013-01-28 02:49:00,
2013-01-27 20:54:00,62.4,58.2,30.14,ESE,108,0.0,6.0,86,0.00,,---,0.01,VWS V14.01,2013-01-28 02:54:00,
2013-01-27 20:59:00,62.3,58.1,30.14,SE,142,2.0,6.0,86,0.00,,---,0.01,VWS V14.01,2013-01-28 02:59:00,
2013-01-27 21:00:00,62.3,58.1,30.14,SE,143,2.0,6.0,86,0.00,,---,0.01,VWS V14.01,2013-01-28 03:00:00,
2013-01-27 21:04:00,62.3,58.1,30.14,SSE,148,0.0,3.0,86,0.00,,---,0.01,VWS V14.01,2013-01-28 03:04:00,
2013-01-27 21:09:00,62.1,57.9,30.14,SSE,147,0.0,3.0,86,0.00,,---,0.01,VWS V14.01,2013-01-28 03:09:00,
2013-01-27 21:14:00,62.1,58.2,30.14,SSE,165,0.0,0.0,87,0.00,,---,0.01,VWS V14.01,2013-01-28 03:14:00,
2013-01-27 21:15:00,62.1,58.2,30.14,SSE,165,0.0,3.0,87,0.00,,---,0.01,VWS V14.01,2013-01-28 03:15:00,
2013-01-27 21:19:00,61.8,57.9,30.14,SE,133,3.0,5.0,87,0.00,,---,0.01,VWS V14.01,2013-01-28 03:19:00,
2013-01-27 21:24:00,61.6,58.0,30.14,SE,126,3.0,6.0,88,0.00,,---,0.01,VWS V14.01,2013-01-28 03:24:00,
2013-01-27 21:30:00,61.5,57.9,30.14,ESE,113,0.0,0.0,88,0.00,,---,0.01,VWS V14.01,2013-01-28 03:30:00,
2013-01-27 21:35:00,61.3,57.7,30.14,SE,140,0.0,4.0,88,0.00,,---,0.01,VWS V14.01,2013-01-28 03:35:00,
2013-01-27 21:40:00,61.2,57.9,30.14,SE,143,4.0,4.0,89,0.00,,---,0.01,VWS V14.01,2013-01-28 03:40:00,
2013-01-27 21:45:00,61.2,57.9,30.14,SE,133,2.0,3.0,89,0.00,,---,0.01,VWS V14.01,2013-01-28 03:45:00,
2013-01-27 21:50:00,60.9,57.6,30.14,SE,125,1.0,4.0,89,0.00,,---,0.01,VWS V14.01,2013-01-28 03:50:00,
2013-01-27 21:55:00,61.0,58.0,30.14,SE,132,4.0,7.0,90,0.00,,---,0.01,VWS V14.01,2013-01-28 03:55:00,
2013-01-27 22:00:00,61.0,58.4,30.13,SE,140,4.0,7.0,91,0.00,,---,0.01,VWS V14.01,2013-01-28 04:00:00,
2013-01-27 22:05:00,61.2,58.6,30.13,SE,130,3.0,9.0,91,0.00,,---,0.01,VWS V14.01,2013-01-28 04:05:00,
2013-01-27 22:10:00,61.2,58.6,30.13,SE,140,2.0,9.0,91,0.00,,---,0.01,VWS V14.01,2013-01-28 04:10:00,
2013-01-27 22:15:00,61.2,58.6,30.12,ESE,107,4.0,7.0,91,0.00,,---,0.01,VWS V14.01,2013-01-28 04:15:00,
2013-01-27 22:20:00,61.3,58.7,30.12,SSE,153,4.0,7.0,91,0.00,,---,0.01,VWS V14.01,2013-01-28 04:20:00,
2013-01-27 22:25:00,61.5,58.8,30.12,SSE,157,5.0,12.0,91,0.00,,---,0.01,VWS V14.01,2013-01-28 04:25:00,
2013-01-27 22:30:00,61.5,58.8,30.13,SE,134,0.0,0.0,91,0.00,,---,0.01,VWS V14.01,2013-01-28 04:30:00,
2013-01-27 22:35:00,61.5,58.8,30.13,SE,144,0.0,11.0,91,0.00,,---,0.01,VWS V14.01,2013-01-28 04:35:00,
2013-01-27 22:40:00,61.5,58.8,30.13,SE,144,1.0,12.0,91,0.00,,---,0.01,VWS V14.01,2013-01-28 04:40:00,
2013-01-27 22:45:00,61.5,59.2,30.14,South,173,0.0,12.0,92,0.00,,---,0.01,VWS V14.01,2013-01-28 04:45:00,
2013-01-27 22:46:00,61.5,59.2,30.14,SSE,168,0.0,0.0,92,0.00,,---,0.01,VWS V14.01,2013-01-28 04:46:00,
2013-01-27 22:51:00,61.3,59.0,30.14,SSE,153,0.0,6.0,92,0.00,,---,0.01,VWS V14.01,2013-01-28 04:51:00,
2013-01-27 22:56:00,61.2,58.9,30.14,SSE,159,0.0,6.0,92,0.00,,---,0.01,VWS V14.01,2013-01-28 04:56:00,
2013-01-27 23:00:00,61.2,58.9,30.12,SE,136,1.0,6.0,92,0.00,,---,0.01,VWS V14.01,2013-01-28 05:00:00,
2013-01-27 23:01:00,61.2,58.9,30.12,SE,134,3.0,10.0,92,0.00,,---,0.01,VWS V14.01,2013-01-28 05:01:00,
2013-01-27 23:03:00,61.2,58.9,30.12,SSE,148,4.0,10.0,92,0.00,,---,0.01,VWS V14.01,2013-01-28 05:03:00,
2013-01-27 23:08:00,61.2,58.9,30.12,SE,140,1.0,10.0,92,0.00,,---,0.01,VWS V14.01,2013-01-28 05:08:00,
2013-01-27 23:13:00,61.2,58.9,30.12,SE,144,0.0,10.0,92,0.00,,---,0.01,VWS V14.01,2013-01-28 05:13:00,
2013-01-27 23:15:00,61.2,58.9,30.12,SE,144,4.0,10.0,92,0.00,,---,0.01,VWS V14.01,2013-01-28 05:15:00,
2013-01-27 23:19:00,61.3,59.0,30.12,SE,132,2.0,6.0,92,0.00,,---,0.01,VWS V14.01,2013-01-28 05:19:00,
2013-01-27 23:24:00,61.3,59.3,30.12,SE,131,0.0,7.0,93,0.00,,---,0.01,VWS V14.01,2013-01-28 05:24:00,
2013-01-27 23:29:00,61.2,59.2,30.13,SE,144,0.0,7.0,93,0.00,,---,0.01,VWS V14.01,2013-01-28 05:29:00,
2013-01-27 23:30:00,61.2,59.2,30.13,SE,144,0.0,7.0,93,0.00,,---,0.01,VWS V14.01,2013-01-28 05:30:00,
2013-01-27 23:34:00,61.0,59.0,30.13,ESE,121,5.0,5.0,93,0.00,,---,0.01,VWS V14.01,2013-01-28 05:34:00,
2013-01-27 23:39:00,61.0,59.0,30.13,SSE,151,0.0,7.0,93,0.00,,---,0.01,VWS V14.01,2013-01-28 05:39:00,
2013-01-27 23:44:00,60.9,58.9,30.14,SE,134,0.0,7.0,93,0.00,,---,0.01,VWS V14.01,2013-01-28 05:44:00,
2013-01-27 23:45:00,60.9,58.9,30.14,SE,136,0.0,7.0,93,0.00,,---,0.01,VWS V14.01,2013-01-28 05:45:00,
2013-01-27 23:49:00,60.7,58.7,30.14,SE,136,0.0,0.0,93,0.00,,---,0.01,VWS V14.01,2013-01-28 05:49:00,
2013-01-27 23:54:00,60.5,58.5,30.14,SE,136,0.0,0.0,93,0.00,,---,0.01,VWS V14.01,2013-01-28 05:54:00,
2013-01-27 23:59:00,60.4,58.4,30.14,SE,136,0.0,0.0,93,0.00,,---,0.01,VWS V14.01,2013-01-28 05:59:00,